sensor_id;sensor_type;location;lat;lon;timestamp;temperature;humidity
18083;DHT22;9168;51.194;6.840;2023-07-20T00:00:10;18.00;99.90
18083;DHT22;9168;51.194;6.840;2023-07-20T00:02:39;18.00;99.90
18083;DHT22;9168;51.194;6.840;2023-07-20T00:05:06;18.00;99.90
18083;DHT22;9168;51.194;6.840;2023-07-20T00:07:33;17.90;99.90
18083;DHT22;9168;51.194;6.840;2023-07-20T00:10:00;17.90;99.90
18083;DHT22;9168;51.194;6.840;2023-07-20T00:12:27;17.90;99.90
18083;DHT22;9168;51.194;6.840;2023-07-20T00:14:55;17.90;99.90
18083;DHT22;9168;51.194;6.840;2023-07-20T00:17:22;17.90;99.90
18083;DHT22;9168;51.194;6.840;2023-07-20T00:19:49;17.90;99.90
18083;DHT22;9168;51.194;6.840;2023-07-20T00:22:16;17.80;99.90
18083;DHT22;9168;51.194;6.840;2023-07-20T00:24:43;17.80;99.90
18083;DHT22;9168;51.194;6.840;2023-07-20T00:27:09;17.80;99.90
18083;DHT22;9168;51.194;6.840;2023-07-20T00:29:36;17.80;99.90
18083;DHT22;9168;51.194;6.840;2023-07-20T00:32:05;17.80;99.90
18083;DHT22;9168;51.194;6.840;2023-07-20T00:34:32;17.90;99.90
18083;DHT22;9168;51.194;6.840;2023-07-20T00:36:59;17.90;99.90
18083;DHT22;9168;51.194;6.840;2023-07-20T00:39:26;18.00;99.90
18083;DHT22;9168;51.194;6.840;2023-07-20T00:41:53;18.00;99.90
18083;DHT22;9168;51.194;6.840;2023-07-20T00:44:20;18.00;99.90
18083;DHT22;9168;51.194;6.840;2023-07-20T00:46:47;18.00;99.90
18083;DHT22;9168;51.194;6.840;2023-07-20T00:49:16;17.90;99.90
18083;DHT22;9168;51.194;6.840;2023-07-20T00:51:47;18.00;99.90
18083;DHT22;9168;51.194;6.840;2023-07-20T00:54:14;17.90;99.90
18083;DHT22;9168;51.194;6.840;2023-07-20T00:56:42;17.90;99.90
18083;DHT22;9168;51.194;6.840;2023-07-20T00:59:09;17.90;99.90
18083;DHT22;9168;51.194;6.840;2023-07-20T01:01:36;18.00;99.90
18083;DHT22;9168;51.194;6.840;2023-07-20T01:04:04;18.00;99.90
18083;DHT22;9168;51.194;6.840;2023-07-20T01:06:41;18.00;99.90
18083;DHT22;9168;51.194;6.840;2023-07-20T01:09:14;18.00;99.90
18083;DHT22;9168;51.194;6.840;2023-07-20T01:11:48;18.00;99.90
18083;DHT22;9168;51.194;6.840;2023-07-20T01:14:18;18.10;99.90
18083;DHT22;9168;51.194;6.840;2023-07-20T01:16:46;18.10;99.90
18083;DHT22;9168;51.194;6.840;2023-07-20T01:19:15;18.10;99.90
18083;DHT22;9168;51.194;6.840;2023-07-20T01:21:47;18.10;99.90
18083;DHT22;9168;51.194;6.840;2023-07-20T01:24:47;18.10;99.90
18083;DHT22;9168;51.194;6.840;2023-07-20T01:27:53;18.00;99.90
18083;DHT22;9168;51.194;6.840;2023-07-20T01:30:45;18.00;99.90
18083;DHT22;9168;51.194;6.840;2023-07-20T01:33:16;18.00;99.90
18083;DHT22;9168;51.194;6.840;2023-07-20T01:35:46;17.90;99.90
18083;DHT22;9168;51.194;6.840;2023-07-20T01:38:14;17.80;99.90
18083;DHT22;9168;51.194;6.840;2023-07-20T01:40:42;17.80;99.90
18083;DHT22;9168;51.194;6.840;2023-07-20T01:43:10;17.70;99.90
18083;DHT22;9168;51.194;6.840;2023-07-20T01:45:37;17.70;99.90
18083;DHT22;9168;51.194;6.840;2023-07-20T01:48:04;17.70;99.90
18083;DHT22;9168;51.194;6.840;2023-07-20T01:50:32;17.70;99.90
18083;DHT22;9168;51.194;6.840;2023-07-20T01:53:00;17.70;99.90
18083;DHT22;9168;51.194;6.840;2023-07-20T01:55:27;17.60;99.90
18083;DHT22;9168;51.194;6.840;2023-07-20T01:57:55;17.60;99.90
18083;DHT22;9168;51.194;6.840;2023-07-20T02:00:22;17.60;99.90
18083;DHT22;9168;51.194;6.840;2023-07-20T02:02:50;17.60;99.90
18083;DHT22;9168;51.194;6.840;2023-07-20T02:05:17;17.60;99.90
18083;DHT22;9168;51.194;6.840;2023-07-20T02:07:45;17.60;99.90
18083;DHT22;9168;51.194;6.840;2023-07-20T02:10:13;17.50;99.90
18083;DHT22;9168;51.194;6.840;2023-07-20T02:12:40;17.50;99.90
18083;DHT22;9168;51.194;6.840;2023-07-20T02:15:07;17.50;99.90
18083;DHT22;9168;51.194;6.840;2023-07-20T02:17:35;17.40;99.90
18083;DHT22;9168;51.194;6.840;2023-07-20T02:20:03;17.40;99.90
18083;DHT22;9168;51.194;6.840;2023-07-20T02:22:30;17.30;99.90
18083;DHT22;9168;51.194;6.840;2023-07-20T02:24:58;17.30;99.90
18083;DHT22;9168;51.194;6.840;2023-07-20T02:27:25;17.20;99.90
18083;DHT22;9168;51.194;6.840;2023-07-20T02:29:52;17.30;99.90
18083;DHT22;9168;51.194;6.840;2023-07-20T02:32:19;17.30;99.90
18083;DHT22;9168;51.194;6.840;2023-07-20T02:34:45;17.30;99.90
18083;DHT22;9168;51.194;6.840;2023-07-20T02:37:12;17.30;99.90
18083;DHT22;9168;51.194;6.840;2023-07-20T02:39:39;17.30;99.90
18083;DHT22;9168;51.194;6.840;2023-07-20T02:42:08;17.30;99.90
18083;DHT22;9168;51.194;6.840;2023-07-20T02:44:34;17.40;99.90
18083;DHT22;9168;51.194;6.840;2023-07-20T02:47:01;17.40;99.90
18083;DHT22;9168;51.194;6.840;2023-07-20T02:49:28;17.40;99.90
18083;DHT22;9168;51.194;6.840;2023-07-20T02:51:55;17.50;99.90
18083;DHT22;9168;51.194;6.840;2023-07-20T02:54:22;17.50;99.90
18083;DHT22;9168;51.194;6.840;2023-07-20T02:56:49;17.50;99.90
18083;DHT22;9168;51.194;6.840;2023-07-20T02:59:17;17.40;99.90
18083;DHT22;9168;51.194;6.840;2023-07-20T03:01:45;17.40;99.90
18083;DHT22;9168;51.194;6.840;2023-07-20T03:04:12;17.40;99.90
18083;DHT22;9168;51.194;6.840;2023-07-20T03:06:39;17.30;99.90
18083;DHT22;9168;51.194;6.840;2023-07-20T03:09:05;17.30;99.90
18083;DHT22;9168;51.194;6.840;2023-07-20T03:11:33;17.30;99.90
18083;DHT22;9168;51.194;6.840;2023-07-20T03:14:00;17.30;99.90
18083;DHT22;9168;51.194;6.840;2023-07-20T03:16:28;17.30;99.90
18083;DHT22;9168;51.194;6.840;2023-07-20T03:18:58;17.30;99.90
18083;DHT22;9168;51.194;6.840;2023-07-20T03:21:25;17.20;99.90
18083;DHT22;9168;51.194;6.840;2023-07-20T03:23:52;17.20;99.90
18083;DHT22;9168;51.194;6.840;2023-07-20T03:26:19;17.10;99.90
18083;DHT22;9168;51.194;6.840;2023-07-20T03:28:46;17.10;99.90
18083;DHT22;9168;51.194;6.840;2023-07-20T03:31:13;17.10;99.90
18083;DHT22;9168;51.194;6.840;2023-07-20T03:33:42;17.10;99.90
18083;DHT22;9168;51.194;6.840;2023-07-20T03:36:09;17.10;99.90
18083;DHT22;9168;51.194;6.840;2023-07-20T03:38:36;17.10;99.90
18083;DHT22;9168;51.194;6.840;2023-07-20T03:41:03;17.20;99.90
18083;DHT22;9168;51.194;6.840;2023-07-20T03:43:30;17.20;99.90
18083;DHT22;9168;51.194;6.840;2023-07-20T03:45:57;17.20;99.90
18083;DHT22;9168;51.194;6.840;2023-07-20T03:48:24;17.20;99.90
18083;DHT22;9168;51.194;6.840;2023-07-20T03:50:54;17.30;99.90
18083;DHT22;9168;51.194;6.840;2023-07-20T03:53:20;17.30;99.90
18083;DHT22;9168;51.194;6.840;2023-07-20T03:55:48;17.30;99.90
18083;DHT22;9168;51.194;6.840;2023-07-20T03:58:15;17.30;99.90
18083;DHT22;9168;51.194;6.840;2023-07-20T04:00:45;17.40;99.90
18083;DHT22;9168;51.194;6.840;2023-07-20T04:03:12;17.40;99.90
18083;DHT22;9168;51.194;6.840;2023-07-20T04:05:39;17.40;99.90
18083;DHT22;9168;51.194;6.840;2023-07-20T04:08:08;17.40;99.90
18083;DHT22;9168;51.194;6.840;2023-07-20T04:10:36;17.40;99.90
18083;DHT22;9168;51.194;6.840;2023-07-20T04:13:03;17.40;99.90
18083;DHT22;9168;51.194;6.840;2023-07-20T04:15:31;17.40;99.90
18083;DHT22;9168;51.194;6.840;2023-07-20T04:17:58;17.40;99.90
18083;DHT22;9168;51.194;6.840;2023-07-20T04:20:26;17.40;99.90
18083;DHT22;9168;51.194;6.840;2023-07-20T04:22:53;17.40;99.90
18083;DHT22;9168;51.194;6.840;2023-07-20T04:25:21;17.50;99.90
18083;DHT22;9168;51.194;6.840;2023-07-20T04:27:48;17.50;99.90
18083;DHT22;9168;51.194;6.840;2023-07-20T04:30:17;17.50;99.90
18083;DHT22;9168;51.194;6.840;2023-07-20T04:32:46;17.50;99.90
18083;DHT22;9168;51.194;6.840;2023-07-20T04:35:18;17.50;99.90
18083;DHT22;9168;51.194;6.840;2023-07-20T04:37:45;17.50;99.90
18083;DHT22;9168;51.194;6.840;2023-07-20T04:40:12;17.50;99.90
18083;DHT22;9168;51.194;6.840;2023-07-20T04:42:41;17.60;99.90
18083;DHT22;9168;51.194;6.840;2023-07-20T04:45:08;17.60;99.90
18083;DHT22;9168;51.194;6.840;2023-07-20T04:47:35;17.60;99.90
18083;DHT22;9168;51.194;6.840;2023-07-20T04:50:03;17.60;99.90
18083;DHT22;9168;51.194;6.840;2023-07-20T04:52:30;17.60;99.90
18083;DHT22;9168;51.194;6.840;2023-07-20T04:54:58;17.70;99.90
18083;DHT22;9168;51.194;6.840;2023-07-20T04:57:24;17.70;99.90
18083;DHT22;9168;51.194;6.840;2023-07-20T04:59:53;17.70;99.90
18083;DHT22;9168;51.194;6.840;2023-07-20T05:02:20;17.70;99.90
18083;DHT22;9168;51.194;6.840;2023-07-20T05:04:47;17.70;99.90
18083;DHT22;9168;51.194;6.840;2023-07-20T05:07:14;17.60;99.90
18083;DHT22;9168;51.194;6.840;2023-07-20T05:09:41;17.60;99.90
18083;DHT22;9168;51.194;6.840;2023-07-20T05:12:08;17.70;99.90
18083;DHT22;9168;51.194;6.840;2023-07-20T05:14:34;17.70;99.90
18083;DHT22;9168;51.194;6.840;2023-07-20T05:17:03;17.70;99.90
18083;DHT22;9168;51.194;6.840;2023-07-20T05:19:30;17.70;99.90
18083;DHT22;9168;51.194;6.840;2023-07-20T05:21:57;17.80;99.90
18083;DHT22;9168;51.194;6.840;2023-07-20T05:24:24;17.80;99.90
18083;DHT22;9168;51.194;6.840;2023-07-20T05:26:50;17.80;99.90
18083;DHT22;9168;51.194;6.840;2023-07-20T05:29:17;17.80;99.90
18083;DHT22;9168;51.194;6.840;2023-07-20T05:31:44;17.80;99.90
18083;DHT22;9168;51.194;6.840;2023-07-20T05:34:12;17.90;99.90
18083;DHT22;9168;51.194;6.840;2023-07-20T05:36:39;17.90;99.90
18083;DHT22;9168;51.194;6.840;2023-07-20T05:39:06;18.00;99.90
18083;DHT22;9168;51.194;6.840;2023-07-20T05:41:33;18.00;99.90
18083;DHT22;9168;51.194;6.840;2023-07-20T05:44:00;18.00;99.90
18083;DHT22;9168;51.194;6.840;2023-07-20T05:46:27;18.00;99.90
18083;DHT22;9168;51.194;6.840;2023-07-20T05:48:54;18.10;99.90
18083;DHT22;9168;51.194;6.840;2023-07-20T05:51:22;18.10;99.90
18083;DHT22;9168;51.194;6.840;2023-07-20T05:53:49;18.10;99.90
18083;DHT22;9168;51.194;6.840;2023-07-20T05:56:16;18.10;99.90
18083;DHT22;9168;51.194;6.840;2023-07-20T05:58:43;18.10;99.90
18083;DHT22;9168;51.194;6.840;2023-07-20T06:01:10;18.10;99.90
18083;DHT22;9168;51.194;6.840;2023-07-20T06:03:37;18.20;99.90
18083;DHT22;9168;51.194;6.840;2023-07-20T06:06:04;18.20;99.90
18083;DHT22;9168;51.194;6.840;2023-07-20T06:08:33;18.20;99.90
18083;DHT22;9168;51.194;6.840;2023-07-20T06:11:00;18.30;99.90
18083;DHT22;9168;51.194;6.840;2023-07-20T06:13:27;18.30;99.90
18083;DHT22;9168;51.194;6.840;2023-07-20T06:15:54;18.40;99.90
18083;DHT22;9168;51.194;6.840;2023-07-20T06:18:22;18.40;99.90
18083;DHT22;9168;51.194;6.840;2023-07-20T06:20:49;18.50;99.90
18083;DHT22;9168;51.194;6.840;2023-07-20T06:23:18;18.50;99.90
18083;DHT22;9168;51.194;6.840;2023-07-20T06:25:46;18.60;99.90
18083;DHT22;9168;51.194;6.840;2023-07-20T06:28:14;18.60;99.90
18083;DHT22;9168;51.194;6.840;2023-07-20T06:30:41;18.70;99.90
18083;DHT22;9168;51.194;6.840;2023-07-20T06:33:07;18.70;99.90
18083;DHT22;9168;51.194;6.840;2023-07-20T06:35:35;18.80;99.90
18083;DHT22;9168;51.194;6.840;2023-07-20T06:38:02;18.80;99.90
18083;DHT22;9168;51.194;6.840;2023-07-20T06:40:29;18.70;99.90
18083;DHT22;9168;51.194;6.840;2023-07-20T06:42:57;18.70;99.90
18083;DHT22;9168;51.194;6.840;2023-07-20T06:45:24;18.70;99.90
18083;DHT22;9168;51.194;6.840;2023-07-20T06:47:51;18.80;99.90
18083;DHT22;9168;51.194;6.840;2023-07-20T06:50:18;18.80;99.90
18083;DHT22;9168;51.194;6.840;2023-07-20T06:52:45;18.80;99.90
18083;DHT22;9168;51.194;6.840;2023-07-20T06:55:13;18.80;99.90
18083;DHT22;9168;51.194;6.840;2023-07-20T06:57:40;18.70;99.90
18083;DHT22;9168;51.194;6.840;2023-07-20T07:00:10;18.70;99.90
18083;DHT22;9168;51.194;6.840;2023-07-20T07:02:37;18.60;99.90
18083;DHT22;9168;51.194;6.840;2023-07-20T07:05:05;18.60;99.90
18083;DHT22;9168;51.194;6.840;2023-07-20T07:07:32;18.60;99.90
18083;DHT22;9168;51.194;6.840;2023-07-20T07:10:00;18.60;99.90
18083;DHT22;9168;51.194;6.840;2023-07-20T07:12:29;18.70;99.90
18083;DHT22;9168;51.194;6.840;2023-07-20T07:14:56;18.70;99.90
18083;DHT22;9168;51.194;6.840;2023-07-20T07:17:25;18.80;99.90
18083;DHT22;9168;51.194;6.840;2023-07-20T07:19:52;19.00;99.90
18083;DHT22;9168;51.194;6.840;2023-07-20T07:22:20;19.10;99.90
18083;DHT22;9168;51.194;6.840;2023-07-20T07:24:47;19.20;99.90
18083;DHT22;9168;51.194;6.840;2023-07-20T07:27:17;19.20;99.90
18083;DHT22;9168;51.194;6.840;2023-07-20T07:29:43;19.30;99.90
18083;DHT22;9168;51.194;6.840;2023-07-20T07:32:10;19.30;99.90
18083;DHT22;9168;51.194;6.840;2023-07-20T07:34:39;19.40;99.90
18083;DHT22;9168;51.194;6.840;2023-07-20T07:37:05;19.50;99.90
18083;DHT22;9168;51.194;6.840;2023-07-20T07:39:33;19.60;99.90
18083;DHT22;9168;51.194;6.840;2023-07-20T07:42:00;19.70;99.90
18083;DHT22;9168;51.194;6.840;2023-07-20T07:44:26;19.90;99.90
18083;DHT22;9168;51.194;6.840;2023-07-20T07:46:53;20.00;99.90
18083;DHT22;9168;51.194;6.840;2023-07-20T07:49:20;20.10;99.90
18083;DHT22;9168;51.194;6.840;2023-07-20T07:51:49;20.30;99.90
18083;DHT22;9168;51.194;6.840;2023-07-20T07:54:17;20.30;99.90
18083;DHT22;9168;51.194;6.840;2023-07-20T07:56:44;20.30;99.90
18083;DHT22;9168;51.194;6.840;2023-07-20T07:59:11;20.20;99.90
18083;DHT22;9168;51.194;6.840;2023-07-20T08:01:37;20.10;99.90
18083;DHT22;9168;51.194;6.840;2023-07-20T08:04:04;20.00;99.90
18083;DHT22;9168;51.194;6.840;2023-07-20T08:06:31;19.90;99.90
18083;DHT22;9168;51.194;6.840;2023-07-20T08:09:00;19.80;99.90
18083;DHT22;9168;51.194;6.840;2023-07-20T08:11:28;19.70;99.90
18083;DHT22;9168;51.194;6.840;2023-07-20T08:13:59;19.50;99.90
18083;DHT22;9168;51.194;6.840;2023-07-20T08:16:26;19.50;99.90
18083;DHT22;9168;51.194;6.840;2023-07-20T08:18:53;19.40;99.90
18083;DHT22;9168;51.194;6.840;2023-07-20T08:21:19;19.50;99.90
18083;DHT22;9168;51.194;6.840;2023-07-20T08:23:46;19.50;99.90
18083;DHT22;9168;51.194;6.840;2023-07-20T08:26:15;19.60;99.90
18083;DHT22;9168;51.194;6.840;2023-07-20T08:31:10;19.70;99.90
18083;DHT22;9168;51.194;6.840;2023-07-20T08:33:36;19.80;99.90
18083;DHT22;9168;51.194;6.840;2023-07-20T08:36:04;19.90;99.90
18083;DHT22;9168;51.194;6.840;2023-07-20T08:38:31;20.00;99.90
18083;DHT22;9168;51.194;6.840;2023-07-20T08:40:58;20.00;99.90
18083;DHT22;9168;51.194;6.840;2023-07-20T08:43:28;20.10;99.90
18083;DHT22;9168;51.194;6.840;2023-07-20T08:45:55;20.20;99.90
18083;DHT22;9168;51.194;6.840;2023-07-20T08:48:22;20.30;99.90
18083;DHT22;9168;51.194;6.840;2023-07-20T08:50:52;20.30;99.90
18083;DHT22;9168;51.194;6.840;2023-07-20T08:53:19;20.40;99.90
18083;DHT22;9168;51.194;6.840;2023-07-20T08:55:49;20.50;99.90
18083;DHT22;9168;51.194;6.840;2023-07-20T08:58:17;20.70;99.90
18083;DHT22;9168;51.194;6.840;2023-07-20T09:00:46;20.80;99.90
18083;DHT22;9168;51.194;6.840;2023-07-20T09:03:18;20.90;99.90
18083;DHT22;9168;51.194;6.840;2023-07-20T09:05:46;21.00;99.90
18083;DHT22;9168;51.194;6.840;2023-07-20T09:08:12;21.20;99.90
18083;DHT22;9168;51.194;6.840;2023-07-20T09:10:39;21.30;99.90
18083;DHT22;9168;51.194;6.840;2023-07-20T09:13:06;21.40;99.90
18083;DHT22;9168;51.194;6.840;2023-07-20T09:15:33;21.50;99.90
18083;DHT22;9168;51.194;6.840;2023-07-20T09:18:02;21.50;99.90
18083;DHT22;9168;51.194;6.840;2023-07-20T09:20:32;21.30;99.90
18083;DHT22;9168;51.194;6.840;2023-07-20T09:23:00;21.20;99.90
18083;DHT22;9168;51.194;6.840;2023-07-20T09:25:30;21.10;99.90
18083;DHT22;9168;51.194;6.840;2023-07-20T09:28:02;21.00;99.90
18083;DHT22;9168;51.194;6.840;2023-07-20T09:30:29;21.00;99.90
18083;DHT22;9168;51.194;6.840;2023-07-20T09:32:56;21.00;99.90
18083;DHT22;9168;51.194;6.840;2023-07-20T09:35:25;21.00;99.90
18083;DHT22;9168;51.194;6.840;2023-07-20T09:37:55;21.10;99.90
18083;DHT22;9168;51.194;6.840;2023-07-20T09:40:24;21.20;99.90
18083;DHT22;9168;51.194;6.840;2023-07-20T09:42:53;21.20;99.90
18083;DHT22;9168;51.194;6.840;2023-07-20T09:45:29;21.30;99.90
18083;DHT22;9168;51.194;6.840;2023-07-20T09:48:03;21.40;99.90
18083;DHT22;9168;51.194;6.840;2023-07-20T09:50:32;21.50;99.90
18083;DHT22;9168;51.194;6.840;2023-07-20T09:52:58;21.60;99.90
18083;DHT22;9168;51.194;6.840;2023-07-20T09:55:27;21.80;99.90
18083;DHT22;9168;51.194;6.840;2023-07-20T09:57:56;21.90;99.90
18083;DHT22;9168;51.194;6.840;2023-07-20T10:00:23;22.10;99.90
18083;DHT22;9168;51.194;6.840;2023-07-20T10:02:52;22.30;99.90
18083;DHT22;9168;51.194;6.840;2023-07-20T10:05:20;22.40;99.90
18083;DHT22;9168;51.194;6.840;2023-07-20T10:07:50;22.50;99.90
18083;DHT22;9168;51.194;6.840;2023-07-20T10:10:18;22.70;99.90
18083;DHT22;9168;51.194;6.840;2023-07-20T10:12:47;22.90;99.90
18083;DHT22;9168;51.194;6.840;2023-07-20T10:15:19;23.00;99.90
18083;DHT22;9168;51.194;6.840;2023-07-20T10:17:57;23.00;99.90
18083;DHT22;9168;51.194;6.840;2023-07-20T10:20:26;23.00;99.90
18083;DHT22;9168;51.194;6.840;2023-07-20T10:22:55;23.00;99.90
18083;DHT22;9168;51.194;6.840;2023-07-20T10:25:23;23.20;99.90
18083;DHT22;9168;51.194;6.840;2023-07-20T10:27:51;23.50;99.90
18083;DHT22;9168;51.194;6.840;2023-07-20T10:30:18;23.90;99.90
18083;DHT22;9168;51.194;6.840;2023-07-20T10:32:46;24.20;99.90
18083;DHT22;9168;51.194;6.840;2023-07-20T10:35:15;24.40;99.90
18083;DHT22;9168;51.194;6.840;2023-07-20T10:38:00;24.60;99.90
18083;DHT22;9168;51.194;6.840;2023-07-20T10:40:33;24.40;99.90
18083;DHT22;9168;51.194;6.840;2023-07-20T10:43:02;24.30;99.90
18083;DHT22;9168;51.194;6.840;2023-07-20T10:45:42;24.10;99.90
18083;DHT22;9168;51.194;6.840;2023-07-20T10:48:15;23.90;99.90
18083;DHT22;9168;51.194;6.840;2023-07-20T10:50:43;24.10;99.90
18083;DHT22;9168;51.194;6.840;2023-07-20T10:53:12;24.70;99.90
18083;DHT22;9168;51.194;6.840;2023-07-20T10:55:41;25.30;99.90
18083;DHT22;9168;51.194;6.840;2023-07-20T10:58:12;25.60;99.90
18083;DHT22;9168;51.194;6.840;2023-07-20T11:00:56;26.00;99.90
18083;DHT22;9168;51.194;6.840;2023-07-20T11:03:29;26.30;99.90
18083;DHT22;9168;51.194;6.840;2023-07-20T11:05:57;26.70;99.90
18083;DHT22;9168;51.194;6.840;2023-07-20T11:08:47;27.10;99.90
18083;DHT22;9168;51.194;6.840;2023-07-20T11:11:24;27.50;99.90
18083;DHT22;9168;51.194;6.840;2023-07-20T11:13:55;27.80;99.90
18083;DHT22;9168;51.194;6.840;2023-07-20T11:16:33;27.80;99.90
18083;DHT22;9168;51.194;6.840;2023-07-20T11:19:01;27.00;99.90
18083;DHT22;9168;51.194;6.840;2023-07-20T11:21:28;26.20;99.90
18083;DHT22;9168;51.194;6.840;2023-07-20T11:23:56;25.60;99.90
18083;DHT22;9168;51.194;6.840;2023-07-20T11:26:23;25.30;99.90
18083;DHT22;9168;51.194;6.840;2023-07-20T11:28:50;25.30;99.90
18083;DHT22;9168;51.194;6.840;2023-07-20T11:31:18;25.20;99.90
18083;DHT22;9168;51.194;6.840;2023-07-20T11:33:45;25.00;99.90
18083;DHT22;9168;51.194;6.840;2023-07-20T11:36:12;24.90;99.90
18083;DHT22;9168;51.194;6.840;2023-07-20T11:38:41;25.00;99.90
18083;DHT22;9168;51.194;6.840;2023-07-20T11:41:11;25.30;99.90
18083;DHT22;9168;51.194;6.840;2023-07-20T11:43:39;25.50;99.90
18083;DHT22;9168;51.194;6.840;2023-07-20T11:46:07;25.60;99.90
18083;DHT22;9168;51.194;6.840;2023-07-20T11:48:35;25.70;99.90
18083;DHT22;9168;51.194;6.840;2023-07-20T11:51:02;25.90;99.90
18083;DHT22;9168;51.194;6.840;2023-07-20T11:53:30;26.20;99.90
18083;DHT22;9168;51.194;6.840;2023-07-20T11:55:58;26.60;99.90
18083;DHT22;9168;51.194;6.840;2023-07-20T11:58:28;27.20;99.90
18083;DHT22;9168;51.194;6.840;2023-07-20T12:00:55;27.20;99.90
18083;DHT22;9168;51.194;6.840;2023-07-20T12:03:22;27.10;99.90
18083;DHT22;9168;51.194;6.840;2023-07-20T12:05:49;26.90;99.90
18083;DHT22;9168;51.194;6.840;2023-07-20T12:08:16;26.70;99.90
18083;DHT22;9168;51.194;6.840;2023-07-20T12:10:43;26.50;99.90
18083;DHT22;9168;51.194;6.840;2023-07-20T12:13:11;26.20;99.90
18083;DHT22;9168;51.194;6.840;2023-07-20T12:15:39;25.90;99.90
18083;DHT22;9168;51.194;6.840;2023-07-20T12:18:06;25.60;99.90
18083;DHT22;9168;51.194;6.840;2023-07-20T12:20:34;25.20;99.90
18083;DHT22;9168;51.194;6.840;2023-07-20T12:23:03;25.00;99.90
18083;DHT22;9168;51.194;6.840;2023-07-20T12:25:36;24.80;99.90
18083;DHT22;9168;51.194;6.840;2023-07-20T12:28:05;24.70;99.90
18083;DHT22;9168;51.194;6.840;2023-07-20T12:30:32;24.90;99.90
18083;DHT22;9168;51.194;6.840;2023-07-20T12:33:00;25.60;99.90
18083;DHT22;9168;51.194;6.840;2023-07-20T12:35:27;26.30;99.90
18083;DHT22;9168;51.194;6.840;2023-07-20T12:37:54;26.50;99.90
18083;DHT22;9168;51.194;6.840;2023-07-20T12:40:21;26.90;99.90
18083;DHT22;9168;51.194;6.840;2023-07-20T12:42:48;27.50;99.90
18083;DHT22;9168;51.194;6.840;2023-07-20T12:45:15;28.00;99.90
18083;DHT22;9168;51.194;6.840;2023-07-20T12:47:42;28.20;99.00
18083;DHT22;9168;51.194;6.840;2023-07-20T12:50:11;27.80;97.80
18083;DHT22;9168;51.194;6.840;2023-07-20T12:52:38;27.50;97.80
18083;DHT22;9168;51.194;6.840;2023-07-20T12:55:07;26.90;98.70
18083;DHT22;9168;51.194;6.840;2023-07-20T12:57:35;26.70;98.80
18083;DHT22;9168;51.194;6.840;2023-07-20T13:00:03;26.80;99.80
18083;DHT22;9168;51.194;6.840;2023-07-20T13:02:30;26.80;99.20
18083;DHT22;9168;51.194;6.840;2023-07-20T13:04:57;26.70;98.70
18083;DHT22;9168;51.194;6.840;2023-07-20T13:07:31;26.50;98.70
18083;DHT22;9168;51.194;6.840;2023-07-20T13:09:59;27.10;99.80
18083;DHT22;9168;51.194;6.840;2023-07-20T13:12:26;27.50;98.30
18083;DHT22;9168;51.194;6.840;2023-07-20T13:14:54;28.00;98.50
18083;DHT22;9168;51.194;6.840;2023-07-20T13:17:22;28.60;97.80
18083;DHT22;9168;51.194;6.840;2023-07-20T13:19:50;29.00;96.40
18083;DHT22;9168;51.194;6.840;2023-07-20T13:22:17;28.60;95.20
18083;DHT22;9168;51.194;6.840;2023-07-20T13:24:46;28.10;96.00
18083;DHT22;9168;51.194;6.840;2023-07-20T13:27:14;27.60;97.20
18083;DHT22;9168;51.194;6.840;2023-07-20T13:29:41;27.10;98.20
18083;DHT22;9168;51.194;6.840;2023-07-20T13:32:09;26.60;98.00
18083;DHT22;9168;51.194;6.840;2023-07-20T13:34:36;26.20;98.40
18083;DHT22;9168;51.194;6.840;2023-07-20T13:37:03;25.90;99.20
18083;DHT22;9168;51.194;6.840;2023-07-20T13:39:30;25.70;99.50
18083;DHT22;9168;51.194;6.840;2023-07-20T13:41:58;25.60;99.60
18083;DHT22;9168;51.194;6.840;2023-07-20T13:44:27;25.60;99.80
18083;DHT22;9168;51.194;6.840;2023-07-20T13:46:54;25.40;99.90
18083;DHT22;9168;51.194;6.840;2023-07-20T13:49:21;25.20;99.90
18083;DHT22;9168;51.194;6.840;2023-07-20T13:51:47;25.10;99.90
18083;DHT22;9168;51.194;6.840;2023-07-20T13:54:14;24.90;99.90
18083;DHT22;9168;51.194;6.840;2023-07-20T13:56:41;24.60;99.90
18083;DHT22;9168;51.194;6.840;2023-07-20T13:59:10;24.40;99.90
18083;DHT22;9168;51.194;6.840;2023-07-20T14:01:37;24.10;99.90
18083;DHT22;9168;51.194;6.840;2023-07-20T14:04:04;24.00;99.90
18083;DHT22;9168;51.194;6.840;2023-07-20T14:06:31;23.90;99.90
18083;DHT22;9168;51.194;6.840;2023-07-20T14:08:59;23.70;99.90
18083;DHT22;9168;51.194;6.840;2023-07-20T14:11:26;23.60;99.90
18083;DHT22;9168;51.194;6.840;2023-07-20T14:13:53;23.50;99.90
18083;DHT22;9168;51.194;6.840;2023-07-20T14:16:22;23.40;99.90
18083;DHT22;9168;51.194;6.840;2023-07-20T14:18:49;23.30;99.90
18083;DHT22;9168;51.194;6.840;2023-07-20T14:21:17;23.30;99.90
18083;DHT22;9168;51.194;6.840;2023-07-20T14:23:45;23.20;99.90
18083;DHT22;9168;51.194;6.840;2023-07-20T14:26:12;23.20;99.90
18083;DHT22;9168;51.194;6.840;2023-07-20T14:28:39;23.10;99.90
18083;DHT22;9168;51.194;6.840;2023-07-20T14:31:06;23.20;99.90
18083;DHT22;9168;51.194;6.840;2023-07-20T14:33:35;23.30;99.90
18083;DHT22;9168;51.194;6.840;2023-07-20T14:36:02;23.40;99.90
18083;DHT22;9168;51.194;6.840;2023-07-20T14:38:30;23.60;99.90
18083;DHT22;9168;51.194;6.840;2023-07-20T14:40:57;23.70;99.90
18083;DHT22;9168;51.194;6.840;2023-07-20T14:43:24;23.80;99.90
18083;DHT22;9168;51.194;6.840;2023-07-20T14:45:51;23.80;99.90
18083;DHT22;9168;51.194;6.840;2023-07-20T14:48:18;23.90;99.90
18083;DHT22;9168;51.194;6.840;2023-07-20T14:50:46;24.10;99.90
18083;DHT22;9168;51.194;6.840;2023-07-20T14:53:13;24.30;99.90
18083;DHT22;9168;51.194;6.840;2023-07-20T14:55:42;24.60;99.90
18083;DHT22;9168;51.194;6.840;2023-07-20T14:58:09;24.90;99.90
18083;DHT22;9168;51.194;6.840;2023-07-20T15:00:36;25.20;99.90
18083;DHT22;9168;51.194;6.840;2023-07-20T15:03:03;25.40;99.90
18083;DHT22;9168;51.194;6.840;2023-07-20T15:05:31;25.60;99.90
18083;DHT22;9168;51.194;6.840;2023-07-20T15:08:00;25.70;99.90
18083;DHT22;9168;51.194;6.840;2023-07-20T15:10:27;25.50;99.80
18083;DHT22;9168;51.194;6.840;2023-07-20T15:12:54;25.30;99.90
18083;DHT22;9168;51.194;6.840;2023-07-20T15:15:21;25.10;99.90
18083;DHT22;9168;51.194;6.840;2023-07-20T15:17:48;25.00;99.90
18083;DHT22;9168;51.194;6.840;2023-07-20T15:20:16;24.90;99.90
18083;DHT22;9168;51.194;6.840;2023-07-20T15:22:43;24.80;99.90
18083;DHT22;9168;51.194;6.840;2023-07-20T15:25:11;24.60;99.90
18083;DHT22;9168;51.194;6.840;2023-07-20T15:27:40;24.50;99.90
18083;DHT22;9168;51.194;6.840;2023-07-20T15:30:10;24.30;99.90
18083;DHT22;9168;51.194;6.840;2023-07-20T15:32:37;24.30;99.90
18083;DHT22;9168;51.194;6.840;2023-07-20T15:35:06;24.30;99.90
18083;DHT22;9168;51.194;6.840;2023-07-20T15:37:33;24.20;99.90
18083;DHT22;9168;51.194;6.840;2023-07-20T15:40:00;24.20;99.90
18083;DHT22;9168;51.194;6.840;2023-07-20T15:42:31;24.20;99.90
18083;DHT22;9168;51.194;6.840;2023-07-20T15:44:58;24.20;99.90
18083;DHT22;9168;51.194;6.840;2023-07-20T15:47:25;24.30;99.90
18083;DHT22;9168;51.194;6.840;2023-07-20T15:49:52;24.30;99.90
18083;DHT22;9168;51.194;6.840;2023-07-20T15:52:20;24.40;99.90